Metar GG30 METAR message from awiacja.imgw.pl Metar G30 EPKT METAR EPKT 040930Z 31006KT 290V350 9000 -RA BKN003 16/16 Q1007 =